Time;durP1;ratioP1;P1;durP2;ratioP2;P2;SDS_P1;SDS_P2;PMS_P1;PMS_P2;Temp;Humidity;BMP_temperature;BMP_pressure;BME280_temperature;BME280_humidity;BME280_pressure;Samples;Min_cycle;Max_cycle;Signal;HPM_P1;HPM_P2
2023/01/18 00:00:26;;;;;;;;;19.75;18.50;;;;;6.09;57.39;98672.78;2114349;27;46285;-64
2023/01/18 00:01:27;;;;;;;;;28.00;25.20;;;;;6.06;57.52;98668.50;2106735;27;46876;-64
2023/01/18 00:02:27;;;;;;;;;23.50;23.50;;;;;6.05;57.72;98671.19;2106880;27;46687;-64
2023/01/18 00:03:32;;;;;;;;;19.75;19.00;;;;;6.04;57.50;98670.31;2094458;27;46303;-64
2023/01/18 00:04:32;;;;;;;;;23.60;21.60;;;;;6.03;57.31;98673.00;2069234;27;46302;-64
2023/01/18 00:05:33;;;;;;;;;19.50;17.50;;;;;6.02;57.00;98677.41;2062885;28;46161;-63
2023/01/18 00:06:33;;;;;;;;;16.00;15.25;;;;;6.01;57.42;98673.06;2066401;28;46439;-63
2023/01/18 00:07:33;;;;;;;;;25.00;23.75;;;;;6.03;57.30;98678.28;2072746;28;46722;-62
2023/01/18 00:08:35;;;;;;;;;22.25;22.25;;;;;6.02;57.83;98685.31;2070874;27;46408;-62
2023/01/18 00:09:36;;;;;;;;;26.00;25.20;;;;;6.02;57.43;98680.06;2076975;27;46370;-63
2023/01/18 00:10:36;;;;;;;;;24.75;22.00;;;;;6.02;57.70;98676.56;2076240;27;46131;-63
2023/01/18 00:11:37;;;;;;;;;17.75;16.00;;;;;6.03;57.48;98681.78;2076552;27;47086;-62
2023/01/18 00:12:38;;;;;;;;;25.75;22.25;;;;;6.03;57.81;98683.53;2083301;27;46844;-64
2023/01/18 00:13:38;;;;;;;;;26.25;21.00;;;;;6.02;57.43;98682.69;2078948;27;46507;-63
2023/01/18 00:14:39;;;;;;;;;9.00;9.00;;;;;6.02;58.03;98689.72;2079395;27;46421;-64
2023/01/18 00:15:39;;;;;;;;;20.25;20.25;;;;;6.02;57.69;98684.47;2081685;27;46126;-63
2023/01/18 00:16:39;;;;;;;;;26.00;22.00;;;;;6.01;57.70;98683.59;2077035;27;46287;-63
2023/01/18 00:17:52;;;;;;;;;23.25;21.75;;;;;6.02;57.55;98684.47;2079928;27;46967;-62
2023/01/18 00:18:55;;;;;;;;;24.00;22.00;;;;;6.06;58.22;98696.59;2081648;27;46887;-62
2023/01/18 00:19:55;;;;;;;;;23.60;21.80;;;;;6.05;57.80;98689.59;2066574;27;46235;-65
2023/01/18 00:21:03;;;;;;;;;21.75;21.00;;;;;6.06;57.67;98693.97;2068260;28;46259;-65
2023/01/18 00:22:03;;;;;;;;;26.60;24.00;;;;;6.07;57.84;98698.31;2071331;27;46520;-62
2023/01/18 00:23:03;;;;;;;;;18.75;18.00;;;;;6.06;58.06;98691.31;2096476;27;46732;-63
2023/01/18 00:24:09;;;;;;;;;23.50;21.50;;;;;6.06;58.18;98694.81;2093354;27;46774;-63
2023/01/18 00:25:10;;;;;;;;;22.60;21.00;;;;;6.06;57.60;98692.19;2105183;28;46144;-63
2023/01/18 00:26:12;;;;;;;;;25.00;23.25;;;;;6.07;58.11;98693.03;2084904;27;46157;-62
2023/01/18 00:27:13;;;;;;;;;20.40;18.80;;;;;6.06;57.94;98686.91;2096817;27;46341;-64
2023/01/18 00:28:13;;;;;;;;;17.75;16.75;;;;;6.05;57.71;98689.59;2099419;27;46243;-63
2023/01/18 00:29:14;;;;;;;;;19.00;19.00;;;;;6.05;57.78;98689.59;2083755;27;45925;-64
2023/01/18 00:30:17;;;;;;;;;21.80;20.00;;;;;6.03;57.92;98688.81;2106109;27;45875;-63
2023/01/18 00:31:19;;;;;;;;;19.60;19.60;;;;;6.03;58.16;98697.56;2103162;27;46291;-63
2023/01/18 00:32:20;;;;;;;;;21.80;21.40;;;;;6.02;57.53;98695.00;2089155;27;46232;-63
2023/01/18 00:33:20;;;;;;;;;20.75;19.75;;;;;6.01;57.75;98699.41;2056209;28;45784;-64
2023/01/18 00:34:20;;;;;;;;;21.25;20.75;;;;;6.01;58.21;98701.19;2086683;28;46189;-64
2023/01/18 00:35:21;;;;;;;;;17.50;16.50;;;;;6.00;57.84;98694.19;2094375;27;46709;-63
2023/01/18 00:36:22;;;;;;;;;22.50;22.25;;;;;6.01;57.74;98706.44;2071054;28;46171;-63
2023/01/18 00:37:26;;;;;;;;;22.75;18.50;;;;;6.01;57.95;98703.81;2087188;27;46327;-64
2023/01/18 00:38:27;;;;;;;;;21.40;17.00;;;;;5.99;57.85;98695.97;2100057;27;47001;-65
2023/01/18 00:39:27;;;;;;;;;24.20;22.00;;;;;6.00;57.84;98702.94;2107802;27;46423;-63
2023/01/18 00:40:29;;;;;;;;;20.25;19.50;;;;;6.01;57.74;98709.06;2086640;27;46689;-64
2023/01/18 00:41:29;;;;;;;;;19.40;18.00;;;;;6.01;57.97;98698.53;2078175;27;46066;-64
2023/01/18 00:43:49;;;;;;;;;20.40;20.40;;;;;6.02;57.55;98709.00;2088975;27;45761;-64
2023/01/18 00:44:49;;;;;;;;;19.80;19.80;;;;;6.03;57.68;98708.09;2102792;27;46840;-63
2023/01/18 00:45:50;;;;;;;;;24.00;24.00;;;;;6.03;57.93;98712.50;2098374;27;46112;-63
2023/01/18 00:46:50;;;;;;;;;18.50;18.50;;;;;6.04;57.80;98716.84;2087603;27;46338;-65
2023/01/18 00:47:50;;;;;;;;;18.50;18.50;;;;;6.03;57.71;98713.38;2078650;27;46105;-64
2023/01/18 00:48:52;;;;;;;;;21.25;18.75;;;;;6.02;57.72;98714.28;2075343;27;46985;-63
2023/01/18 00:49:52;;;;;;;;;19.60;19.20;;;;;6.00;57.86;98713.47;2075421;28;46928;-64
2023/01/18 00:50:52;;;;;;;;;16.50;15.25;;;;;6.01;57.57;98717.84;2078627;27;46521;-63
2023/01/18 00:51:53;;;;;;;;;19.00;18.25;;;;;6.01;57.82;98715.19;2075463;27;46220;-64
2023/01/18 00:52:56;;;;;;;;;22.50;21.00;;;;;6.01;57.82;98720.47;2067256;28;46137;-63
2023/01/18 00:53:56;;;;;;;;;22.00;20.00;;;;;6.02;57.81;98726.59;2077755;27;46728;-63
2023/01/18 00:54:56;;;;;;;;;18.50;18.50;;;;;6.02;57.47;98726.59;2072959;27;46548;-64
2023/01/18 00:55:57;;;;;;;;;19.25;19.25;;;;;6.02;57.71;98723.97;2078007;27;46291;-64
2023/01/18 00:56:57;;;;;;;;;20.00;18.50;;;;;6.02;57.70;98727.44;2075711;27;46109;-64
2023/01/18 00:57:57;;;;;;;;;22.00;21.00;;;;;6.02;57.37;98729.22;2075078;27;46521;-64
2023/01/18 00:58:58;;;;;;;;;19.00;19.00;;;;;6.02;57.67;98732.72;2079997;28;46205;-63
2023/01/18 00:59:58;;;;;;;;;19.75;19.00;;;;;6.02;57.50;98729.22;2058931;28;46379;-63
2023/01/18 01:00:58;;;;;;;;;17.25;16.00;;;;;6.03;57.47;98730.94;2102454;27;45746;-64
2023/01/18 01:01:59;;;;;;;;;19.75;19.00;;;;;6.02;57.56;98732.72;2096277;27;46307;-63
2023/01/18 01:02:59;;;;;;;;;20.25;20.25;;;;;6.03;57.82;98737.06;2085540;27;46307;-63
2023/01/18 01:06:43;;;;;;;;;20.40;18.80;;;;;6.05;57.36;98737.00;2070807;27;46470;-63
2023/01/18 01:07:43;;;;;;;;;21.75;18.75;;;;;6.03;57.47;98738.84;2078122;27;45849;-65
2023/01/18 01:08:48;;;;;;;;;23.25;22.00;;;;;6.01;57.80;98738.91;2070902;27;44986;-63
2023/01/18 01:09:49;;;;;;;;;16.20;16.20;;;;;6.00;57.32;98747.72;2083319;27;46900;-63
2023/01/18 01:10:51;;;;;;;;;21.00;18.50;;;;;6.01;57.34;98746.78;2063742;27;46737;-64
2023/01/18 01:26:25;;;;;;;;;22.40;20.00;;;;;6.02;57.93;98764.31;2067741;28;46309;-64
2023/01/18 01:27:25;;;;;;;;;22.00;20.75;;;;;6.02;57.69;98758.19;2075725;27;46307;-66
2023/01/18 01:28:26;;;;;;;;;20.75;19.00;;;;;5.99;57.99;98759.16;2069199;27;46517;-64
2023/01/18 01:29:27;;;;;;;;;24.50;21.00;;;;;6.00;57.72;98763.50;2071649;27;46519;-63
2023/01/18 01:30:27;;;;;;;;;22.50;21.25;;;;;5.99;57.44;98761.78;2071808;27;46592;-62
2023/01/18 01:31:27;;;;;;;;;21.75;17.50;;;;;5.98;57.95;98765.34;2063321;28;46567;-63
2023/01/18 01:32:28;;;;;;;;;19.75;19.75;;;;;5.97;57.84;98774.16;2071761;27;45587;-63
2023/01/18 01:33:30;;;;;;;;;20.50;19.00;;;;;5.96;57.54;98772.41;2071268;27;46075;-65
2023/01/18 01:34:30;;;;;;;;;16.60;16.60;;;;;5.96;57.51;98772.41;2060075;27;45816;-64
2023/01/18 01:35:31;;;;;;;;;19.75;19.50;;;;;5.97;57.62;98765.38;2062883;27;46144;-63
2023/01/18 01:36:31;;;;;;;;;20.50;20.50;;;;;5.97;57.90;98771.53;2070060;27;46193;-63
2023/01/18 01:37:32;;;;;;;;;22.00;21.00;;;;;5.98;57.88;98777.66;2072051;27;46104;-64
2023/01/18 01:38:33;;;;;;;;;21.75;19.25;;;;;5.96;57.76;98780.31;2070853;27;46439;-63
2023/01/18 01:39:33;;;;;;;;;17.80;17.40;;;;;5.97;57.99;98786.41;2061690;28;46612;-63
2023/01/18 01:40:34;;;;;;;;;19.25;15.25;;;;;5.96;57.66;98784.72;2071123;27;46825;-65
2023/01/18 01:41:34;;;;;;;;;18.00;18.00;;;;;5.96;57.46;98782.94;2064918;27;46320;-63
2023/01/18 01:42:34;;;;;;;;;20.50;19.25;;;;;5.95;57.39;98786.47;2068886;27;46383;-64
2023/01/18 01:43:52;;;;;;;;;20.25;17.50;;;;;5.95;57.77;98791.75;2072795;27;46880;-63
2023/01/18 01:44:53;;;;;;;;;20.60;18.60;;;;;5.94;57.69;98787.41;2074916;27;46530;-64
2023/01/18 01:45:53;;;;;;;;;19.50;18.50;;;;;5.94;57.41;98781.28;2072014;27;46188;-63
2023/01/18 01:47:09;;;;;;;;;18.50;18.50;;;;;5.93;58.00;98790.09;2074327;27;46778;-65
2023/01/18 01:48:10;;;;;;;;;18.20;18.00;;;;;5.92;57.75;98797.13;2068908;27;47027;-64
2023/01/18 01:49:19;;;;;;;;;14.75;14.75;;;;;5.90;58.04;98796.31;2063600;28;46310;-62
2023/01/18 01:50:26;;;;;;;;;20.60;19.80;;;;;5.90;57.34;98797.19;2070363;27;46972;-63
2023/01/18 01:51:27;;;;;;;;;18.40;17.20;;;;;5.89;57.78;98797.19;2070148;27;46985;-63
2023/01/18 01:52:34;;;;;;;;;19.25;16.50;;;;;5.88;57.53;98795.47;2067034;28;47037;-63
2023/01/18 01:53:34;;;;;;;;;17.20;17.20;;;;;5.87;57.43;98799.88;2071810;27;47135;-62
2023/01/18 01:54:40;;;;;;;;;16.00;15.00;;;;;5.88;57.41;98795.47;2059431;28;46758;-65
2023/01/18 01:55:41;;;;;;;;;18.00;16.60;;;;;5.87;57.65;98802.53;2055634;28;46852;-64
2023/01/18 01:56:45;;;;;;;;;24.25;20.25;;;;;5.88;57.65;98806.00;2055877;28;46594;-64
2023/01/18 01:57:55;;;;;;;;;16.60;15.40;;;;;5.88;57.48;98800.75;2050029;27;46027;-63
2023/01/18 01:58:58;;;;;;;;;15.80;15.80;;;;;5.85;57.34;98799.09;2077980;28;46816;-63
2023/01/18 02:00:03;;;;;;;;;18.80;18.80;;;;;5.85;57.65;98804.34;2077712;27;45541;-63
2023/01/18 02:01:04;;;;;;;;;18.80;17.20;;;;;5.86;57.71;98806.06;2066897;28;46713;-64
2023/01/18 02:02:05;;;;;;;;;14.00;14.00;;;;;5.86;57.27;98805.22;2063461;27;46620;-63
2023/01/18 02:03:09;;;;;;;;;17.40;17.40;;;;;5.85;57.54;98811.38;2073552;27;46614;-63
2023/01/18 02:04:10;;;;;;;;;16.00;14.60;;;;;5.84;57.40;98810.53;2072144;27;45934;-63
2023/01/18 02:05:14;;;;;;;;;18.60;17.20;;;;;5.82;57.32;98804.44;2069835;27;46419;-63
2023/01/18 02:06:30;;;;;;;;;21.00;18.00;;;;;5.84;57.31;98807.88;2068425;27;46944;-62
2023/01/18 02:07:30;;;;;;;;;15.00;14.40;;;;;5.85;57.45;98808.75;2070811;27;46026;-64
2023/01/18 02:08:31;;;;;;;;;17.75;16.75;;;;;5.84;57.82;98807.88;2070190;28;46246;-64
2023/01/18 02:09:31;;;;;;;;;18.75;16.75;;;;;5.84;57.50;98817.53;2070471;27;46347;-63
2023/01/18 02:10:32;;;;;;;;;16.50;15.50;;;;;5.83;57.46;98819.31;2070411;28;46247;-63
2023/01/18 02:11:32;;;;;;;;;16.00;16.00;;;;;5.82;57.78;98822.00;2071427;27;45515;-64
2023/01/18 02:12:34;;;;;;;;;19.00;19.00;;;;;5.82;57.72;98820.22;2071907;27;45803;-63
2023/01/18 02:13:34;;;;;;;;;21.20;19.40;;;;;5.84;57.96;98815.78;2070640;28;45613;-63
2023/01/18 02:14:35;;;;;;;;;22.00;17.25;;;;;5.84;57.32;98812.25;2071328;27;46267;-63
2023/01/18 02:15:47;;;;;;;;;20.00;19.50;;;;;5.84;57.54;98822.78;2063534;28;46517;-64
2023/01/18 02:16:47;;;;;;;;;18.00;17.00;;;;;5.83;57.43;98823.72;2061265;28;45255;-63
2023/01/18 02:18:06;;;;;;;;;14.25;14.00;;;;;5.84;57.41;98820.16;2076331;28;46905;-62
2023/01/18 02:19:44;;;;;;;;;19.80;17.60;;;;;5.83;57.61;98824.56;2084134;27;46171;-63
2023/01/18 02:21:09;;;;;;;;;16.60;16.60;;;;;5.83;58.06;98826.34;2063014;27;46436;-63
2023/01/18 02:22:40;;;;;;;;;22.40;18.60;;;;;5.81;57.46;98821.13;2073562;27;46300;-63
2023/01/18 02:24:02;;;;;;;;;18.60;18.40;;;;;5.80;58.00;98818.56;2065380;27;46292;-63
2023/01/18 02:25:21;;;;;;;;;17.20;16.60;;;;;5.80;57.45;98829.09;2062266;28;45826;-64
2023/01/18 02:26:44;;;;;;;;;16.80;15.40;;;;;5.80;57.55;98829.09;2075407;28;46901;-63
2023/01/18 02:28:13;;;;;;;;;13.60;13.60;;;;;5.79;57.93;98828.22;2083306;27;46778;-63
2023/01/18 02:29:23;;;;;;;;;22.20;14.60;;;;;5.77;57.84;98824.78;2070299;28;45071;-64
2023/01/18 02:30:40;;;;;;;;;15.60;14.20;;;;;5.77;58.01;98823.94;2070453;27;46912;-64
2023/01/18 02:31:57;;;;;;;;;16.00;15.00;;;;;5.77;57.65;98834.44;2062242;28;46396;-64
2023/01/18 02:33:06;;;;;;;;;15.40;14.40;;;;;5.79;57.70;98833.47;2067735;27;46715;-62
2023/01/18 02:34:18;;;;;;;;;21.40;18.20;;;;;5.77;57.53;98827.41;2077968;27;46669;-65
2023/01/18 02:35:39;;;;;;;;;17.40;17.40;;;;;5.78;58.00;98830.91;2078224;27;46990;-62
2023/01/18 02:36:44;;;;;;;;;17.80;16.60;;;;;5.79;57.59;98833.47;2070579;27;46410;-62
2023/01/18 02:38:01;;;;;;;;;15.00;14.40;;;;;5.78;58.02;98837.03;2076000;27;46817;-63
2023/01/18 02:39:08;;;;;;;;;12.80;10.40;;;;;5.78;57.28;98834.41;2080217;27;46370;-63
2023/01/18 02:40:23;;;;;;;;;18.40;18.20;;;;;5.78;57.42;98844.06;2076059;27;47006;-63
2023/01/18 02:46:59;;;;;;;;;12.40;11.40;;;;;5.76;57.71;98833.59;2075257;27;46736;-64
2023/01/18 02:48:01;;;;;;;;;17.75;15.00;;;;;5.76;57.64;98838.00;2070291;27;46609;-65
2023/01/18 02:49:19;;;;;;;;;14.20;14.20;;;;;5.76;57.36;98841.50;2075454;27;46444;-64
2023/01/18 02:50:26;;;;;;;;;9.20;8.40;;;;;5.77;57.49;98839.72;2074960;27;46738;-64
2023/01/18 02:51:26;;;;;;;;;17.60;14.00;;;;;5.77;57.25;98844.97;2076301;27;46902;-64
2023/01/18 02:52:50;;;;;;;;;14.50;14.50;;;;;5.76;57.73;98845.91;2068595;28;46134;-63
2023/01/18 02:53:50;;;;;;;;;12.00;11.60;;;;;5.77;57.29;98855.50;2075879;27;47237;-64
2023/01/18 02:54:51;;;;;;;;;15.00;13.75;;;;;5.76;57.43;98856.41;2076506;27;45494;-64
2023/01/18 02:56:00;;;;;;;;;14.25;13.00;;;;;5.75;57.41;98855.56;2071297;27;45881;-63
2023/01/18 02:57:06;;;;;;;;;13.00;12.80;;;;;5.74;57.06;98861.75;2077906;27;46673;-63
2023/01/18 02:58:32;;;;;;;;;11.00;11.00;;;;;5.74;57.48;98858.25;2077217;27;46845;-63
2023/01/18 02:59:53;;;;;;;;;15.00;14.60;;;;;5.73;57.21;98856.53;2081702;27;46593;-64
2023/01/18 03:01:04;;;;;;;;;11.40;11.40;;;;;5.72;57.31;98860.94;2070990;27;46711;-64
2023/01/18 03:02:10;;;;;;;;;14.00;14.00;;;;;5.72;57.63;98866.19;2071214;27;46766;-64
2023/01/18 03:03:12;;;;;;;;;16.20;15.40;;;;;5.73;57.49;98859.16;2077493;27;45702;-63
2023/01/18 03:04:20;;;;;;;;;13.80;13.80;;;;;5.73;57.71;98869.69;2071503;27;46698;-62
2023/01/18 03:05:23;;;;;;;;;14.80;14.80;;;;;5.71;57.52;98858.31;2070787;28;46722;-64
2023/01/18 03:06:27;;;;;;;;;17.80;14.60;;;;;5.71;57.68;98868.84;2069409;27;45823;-63
2023/01/18 03:07:44;;;;;;;;;13.60;13.00;;;;;5.71;57.81;98871.47;2071350;27;46653;-64
2023/01/18 03:08:50;;;;;;;;;19.20;15.20;;;;;5.71;57.86;98874.09;2063506;28;46220;-63
2023/01/18 03:09:51;;;;;;;;;18.20;14.80;;;;;5.71;57.77;98872.34;2063602;28;46464;-62
2023/01/18 03:11:01;;;;;;;;;9.80;8.00;;;;;5.70;57.69;98869.75;2067665;27;45664;-61
2023/01/18 03:12:14;;;;;;;;;18.60;17.40;;;;;5.70;57.72;98869.75;2072592;27;46915;-62
2023/01/18 03:13:24;;;;;;;;;16.00;14.40;;;;;5.68;57.81;98876.84;2083634;27;46746;-64
2023/01/18 03:14:55;;;;;;;;;14.00;12.40;;;;;5.66;57.68;98876.91;2083177;27;46763;-63
2023/01/18 03:16:06;;;;;;;;;13.80;13.20;;;;;5.66;57.72;98876.91;2084009;27;46696;-62
2023/01/18 03:17:29;;;;;;;;;13.00;12.40;;;;;5.65;58.06;98876.94;2071086;28;46819;-63
2023/01/18 03:18:59;;;;;;;;;14.00;14.00;;;;;5.64;57.81;98880.50;2070714;27;48096;-62
2023/01/18 03:20:07;;;;;;;;;16.40;16.20;;;;;5.62;57.62;98877.91;2075564;27;46598;-62
2023/01/18 03:21:08;;;;;;;;;14.80;14.80;;;;;5.63;57.37;98884.03;2070372;27;46334;-62
2023/01/18 03:22:09;;;;;;;;;15.00;15.00;;;;;5.63;57.69;98884.03;2074739;28;46247;-62
2023/01/18 03:23:36;;;;;;;;;18.20;15.80;;;;;5.61;57.90;98889.34;2078282;28;46332;-64
2023/01/18 03:24:40;;;;;;;;;14.80;14.60;;;;;5.62;57.47;98885.81;2068883;27;46333;-63
2023/01/18 03:25:49;;;;;;;;;15.00;14.00;;;;;5.61;58.10;98889.34;2078597;27;46515;-63
2023/01/18 03:26:54;;;;;;;;;20.40;17.40;;;;;5.61;57.94;98884.94;2075436;27;46677;-63
2023/01/18 03:33:41;;;;;;;;;15.80;14.00;;;;;5.60;57.65;98887.63;2071036;28;46953;-63
2023/01/18 03:34:59;;;;;;;;;14.80;14.80;;;;;5.59;58.21;98886.75;2054472;28;46819;-63
2023/01/18 03:36:01;;;;;;;;;17.40;14.60;;;;;5.60;58.06;98891.13;2078826;28;45708;-64
2023/01/18 03:37:05;;;;;;;;;14.40;14.40;;;;;5.58;58.02;98889.41;2074682;27;46583;-63
2023/01/18 03:38:06;;;;;;;;;14.80;13.80;;;;;5.58;57.75;98892.91;2065726;27;46508;-63
2023/01/18 03:39:14;;;;;;;;;18.00;14.50;;;;;5.58;57.76;98892.03;2074503;27;47037;-63
2023/01/18 03:40:23;;;;;;;;;15.80;14.40;;;;;5.57;57.95;98890.31;2066178;28;46762;-63
2023/01/18 03:41:29;;;;;;;;;15.20;14.00;;;;;5.56;57.95;98893.88;2061007;28;46482;-63
2023/01/18 03:42:36;;;;;;;;;19.20;16.60;;;;;5.55;58.28;98890.38;2075295;27;46860;-63
2023/01/18 03:43:40;;;;;;;;;14.40;14.00;;;;;5.55;57.96;98892.16;2065163;28;46597;-63
2023/01/18 03:44:48;;;;;;;;;17.00;16.20;;;;;5.55;58.07;98900.03;2060193;28;46753;-64
2023/01/18 03:45:53;;;;;;;;;16.40;15.20;;;;;5.54;58.46;98899.19;2095418;28;46972;-63
2023/01/18 03:46:55;;;;;;;;;18.40;18.40;;;;;5.55;58.55;98900.03;2069896;28;46378;-63
2023/01/18 03:47:55;;;;;;;;;17.20;15.00;;;;;5.55;58.19;98905.31;2072991;28;46505;-63
2023/01/18 03:48:56;;;;;;;;;19.00;18.75;;;;;5.55;58.20;98906.16;2090821;28;46301;-64
2023/01/18 03:49:57;;;;;;;;;19.50;18.25;;;;;5.55;58.46;98914.06;2061815;28;46346;-64
2023/01/18 03:51:07;;;;;;;;;22.20;17.60;;;;;5.55;58.24;98911.44;2083613;28;45913;-65
2023/01/18 03:52:22;;;;;;;;;18.00;16.80;;;;;5.55;58.58;98916.69;2088492;28;46773;-65
2023/01/18 03:53:33;;;;;;;;;14.80;14.80;;;;;5.55;57.97;98911.44;2072308;28;45762;-63
2023/01/18 03:55:05;;;;;;;;;19.20;19.00;;;;;5.55;58.15;98921.09;2063328;28;46965;-64
2023/01/18 03:56:20;;;;;;;;;15.60;15.60;;;;;5.53;57.99;98915.88;2059718;28;46429;-63
2023/01/18 03:57:48;;;;;;;;;18.60;15.60;;;;;5.52;58.52;98924.69;2061653;28;46989;-64
2023/01/18 03:58:56;;;;;;;;;18.20;16.40;;;;;5.51;58.02;98932.63;2069096;28;46077;-64
2023/01/18 03:59:57;;;;;;;;;14.40;14.40;;;;;5.49;58.44;98930.03;2077884;28;46904;-63
2023/01/18 04:00:57;;;;;;;;;15.25;14.75;;;;;5.49;58.08;98937.06;2067761;28;45973;-63
2023/01/18 04:01:58;;;;;;;;;18.75;15.00;;;;;5.46;58.04;98934.50;2067163;27;45930;-64
2023/01/18 04:02:58;;;;;;;;;14.75;13.75;;;;;5.44;58.44;98937.19;2063705;28;45633;-64
2023/01/18 04:03:59;;;;;;;;;18.00;14.75;;;;;5.42;58.51;98939.00;2062135;28;46155;-63
2023/01/18 04:05:02;;;;;;;;;16.75;15.50;;;;;5.43;58.36;98945.13;2065929;28;46802;-62
2023/01/18 04:06:06;;;;;;;;;13.80;12.80;;;;;5.42;58.25;98943.41;2060410;28;45741;-64
2023/01/18 04:07:06;;;;;;;;;14.80;14.60;;;;;5.42;58.15;98943.41;2067577;28;46388;-63
2023/01/18 04:08:07;;;;;;;;;15.25;14.75;;;;;5.39;58.14;98944.38;2061076;28;46884;-64
2023/01/18 04:09:07;;;;;;;;;17.00;15.50;;;;;5.37;58.30;98943.56;2061069;28;47132;-63
2023/01/18 04:10:08;;;;;;;;;17.50;15.00;;;;;5.37;58.04;98953.22;2054071;28;46548;-63
2023/01/18 04:11:09;;;;;;;;;18.00;18.00;;;;;5.34;58.23;98951.53;2045636;28;46374;-64
2023/01/18 04:12:09;;;;;;;;;18.50;18.50;;;;;5.31;58.66;98947.19;2054012;28;45751;-62
2023/01/18 04:13:09;;;;;;;;;21.75;19.75;;;;;5.31;58.23;98956.88;2073762;28;45772;-64
2023/01/18 04:14:10;;;;;;;;;18.25;18.25;;;;;5.30;58.18;98955.13;2069868;28;46822;-64
2023/01/18 04:15:10;;;;;;;;;20.00;20.00;;;;;5.28;58.47;98956.97;2065357;28;46291;-64
2023/01/18 04:16:11;;;;;;;;;21.25;19.50;;;;;5.27;58.22;98955.25;2076621;27;46797;-63
2023/01/18 04:17:11;;;;;;;;;16.75;16.50;;;;;5.25;58.59;98965.81;2070913;27;46176;-63
2023/01/18 04:18:11;;;;;;;;;19.00;19.00;;;;;5.23;58.86;98962.38;2077851;27;46967;-63
2023/01/18 04:19:12;;;;;;;;;20.00;18.25;;;;;5.22;58.49;98968.53;2077477;27;46282;-65
2023/01/18 04:20:12;;;;;;;;;17.25;17.25;;;;;5.21;58.78;98969.44;2079449;27;46724;-63
2023/01/18 04:21:12;;;;;;;;;17.25;17.25;;;;;5.21;58.66;98971.19;2077407;27;46479;-64
2023/01/18 04:22:13;;;;;;;;;19.75;18.00;;;;;5.20;59.09;98964.19;2067057;27;46923;-64
2023/01/18 04:23:14;;;;;;;;;20.25;20.25;;;;;5.18;58.95;98966.88;2067001;27;46446;-63
2023/01/18 04:24:16;;;;;;;;;19.75;18.75;;;;;5.20;58.99;98972.06;2070528;27;46253;-62
2023/01/18 04:25:16;;;;;;;;;21.60;19.00;;;;;5.20;58.53;98972.94;2063741;28;46246;-62
2023/01/18 04:26:18;;;;;;;;;18.00;18.00;;;;;5.22;58.71;98973.78;2071369;28;46197;-63
2023/01/18 04:27:18;;;;;;;;;17.80;16.80;;;;;5.22;58.45;98972.94;2076388;27;46696;-63
2023/01/18 04:28:24;;;;;;;;;20.50;20.00;;;;;5.21;58.72;98972.06;2069340;27;46295;-63
2023/01/18 04:29:24;;;;;;;;;20.00;19.00;;;;;5.21;58.86;98974.69;2070967;28;47275;-63
2023/01/18 04:30:26;;;;;;;;;19.00;19.00;;;;;5.22;58.45;98975.56;2070893;27;46218;-64
2023/01/18 04:31:26;;;;;;;;;19.60;18.20;;;;;5.22;58.93;98983.44;2070962;28;46818;-63
2023/01/18 04:32:27;;;;;;;;;20.00;20.00;;;;;5.22;58.30;98975.56;2069730;27;47723;-64
2023/01/18 04:33:28;;;;;;;;;21.40;20.20;;;;;5.20;58.11;98978.19;2070289;27;46426;-62
2023/01/18 04:34:28;;;;;;;;;19.75;19.75;;;;;5.20;58.48;98972.06;2077588;27;46265;-63
2023/01/18 04:35:29;;;;;;;;;19.50;18.75;;;;;5.19;58.65;98984.38;2076180;27;46642;-64
2023/01/18 04:36:30;;;;;;;;;21.50;20.25;;;;;5.16;58.33;98984.47;2079011;28;46358;-64
2023/01/18 04:37:33;;;;;;;;;15.20;13.00;;;;;5.15;58.24;98988.00;2075569;27;47128;-63
2023/01/18 04:38:33;;;;;;;;;24.00;20.60;;;;;5.15;58.20;98988.00;2076193;27;46422;-63
2023/01/18 04:39:34;;;;;;;;;16.50;16.50;;;;;5.15;58.59;98987.13;2062608;28;46318;-64
2023/01/18 04:40:34;;;;;;;;;22.50;21.50;;;;;5.16;58.66;98994.13;2073820;27;46928;-64
2023/01/18 04:41:34;;;;;;;;;20.50;18.25;;;;;5.14;58.45;98991.53;2077017;27;46338;-62
2023/01/18 04:42:35;;;;;;;;;20.50;18.50;;;;;5.14;58.36;98988.03;2078195;27;46488;-64
2023/01/18 04:43:35;;;;;;;;;17.25;16.00;;;;;5.14;58.50;98998.56;2076537;27;46357;-63
2023/01/18 04:44:36;;;;;;;;;22.50;19.50;;;;;5.14;58.69;98995.94;2078622;27;46749;-64
2023/01/18 04:45:37;;;;;;;;;24.75;21.25;;;;;5.15;58.71;98997.66;2076934;27;46705;-63
2023/01/18 04:46:37;;;;;;;;;24.00;22.75;;;;;5.14;58.63;99001.19;2076511;27;46810;-64
2023/01/18 04:47:38;;;;;;;;;23.25;20.25;;;;;5.13;58.32;99005.59;2111687;27;46421;-65
2023/01/18 04:48:38;;;;;;;;;21.25;21.25;;;;;5.13;58.33;99010.84;2085188;28;46631;-65
2023/01/18 04:49:38;;;;;;;;;24.75;21.75;;;;;5.12;58.73;98998.59;2099722;28;46540;-63
2023/01/18 04:50:39;;;;;;;;;23.00;20.25;;;;;5.12;58.04;99008.25;2104319;27;45509;-64
2023/01/18 04:51:40;;;;;;;;;23.75;19.50;;;;;5.11;58.15;99003.91;2093327;27;45038;-65
2023/01/18 04:52:40;;;;;;;;;21.50;20.00;;;;;5.10;58.39;99000.41;2068955;28;46737;-64
2023/01/18 04:53:41;;;;;;;;;20.50;19.50;;;;;5.09;58.46;99000.47;2095068;27;46593;-64
2023/01/18 04:54:42;;;;;;;;;21.20;18.80;;;;;5.10;58.75;99004.81;2098967;27;46564;-64
2023/01/18 04:55:43;;;;;;;;;20.00;20.00;;;;;5.09;58.56;99009.22;2113276;27;46113;-63
2023/01/18 04:56:44;;;;;;;;;18.40;16.40;;;;;5.09;58.41;99003.09;2099676;27;46386;-62
2023/01/18 04:57:44;;;;;;;;;23.50;20.50;;;;;5.09;58.50;99000.47;2107338;27;46697;-63
2023/01/18 04:58:45;;;;;;;;;20.25;19.75;;;;;5.08;58.42;99001.34;2107058;27;45791;-65
2023/01/18 04:59:45;;;;;;;;;19.75;19.75;;;;;5.07;58.42;99004.88;2100053;27;46328;-63
2023/01/18 05:00:45;;;;;;;;;15.75;15.00;;;;;5.06;58.77;99006.63;2113539;27;46648;-64
2023/01/18 05:01:46;;;;;;;;;21.25;18.25;;;;;5.06;58.55;99008.41;2080456;27;45470;-64
2023/01/18 05:02:47;;;;;;;;;20.75;18.75;;;;;5.03;58.47;99012.84;2075625;27;46212;-64
2023/01/18 05:03:48;;;;;;;;;19.25;19.00;;;;;5.02;58.32;99007.63;2073238;27;46728;-64
2023/01/18 05:04:48;;;;;;;;;20.40;19.60;;;;;5.01;58.54;99011.16;2076901;27;46855;-64
2023/01/18 05:05:49;;;;;;;;;19.25;19.25;;;;;5.00;58.54;99007.69;2072398;27;46247;-65
2023/01/18 05:06:49;;;;;;;;;21.25;17.25;;;;;5.01;58.46;99009.41;2069324;27;46198;-62
2023/01/18 05:07:49;;;;;;;;;24.50;23.00;;;;;5.02;58.42;99015.53;2070780;27;45413;-64
2023/01/18 05:08:51;;;;;;;;;18.75;17.50;;;;;5.03;58.93;99010.22;2062064;28;45537;-64
2023/01/18 05:09:51;;;;;;;;;19.60;17.60;;;;;5.06;58.51;99013.66;2061993;28;46311;-65
2023/01/18 05:10:52;;;;;;;;;22.00;22.00;;;;;5.05;58.66;99012.81;2070548;27;45736;-64
2023/01/18 05:11:52;;;;;;;;;20.75;19.00;;;;;5.08;59.08;99014.47;2070816;27;47059;-65
2023/01/18 05:12:52;;;;;;;;;22.75;20.75;;;;;5.10;58.35;99020.59;2066795;27;46982;-65
2023/01/18 05:13:52;;;;;;;;;23.25;19.00;;;;;5.09;58.52;99014.47;2070410;27;46371;-64
2023/01/18 05:14:53;;;;;;;;;16.75;16.00;;;;;5.11;58.60;99019.69;2070851;27;46271;-64
2023/01/18 05:15:53;;;;;;;;;22.00;21.25;;;;;5.12;58.50;99021.41;2067538;27;46368;-64
2023/01/18 05:16:54;;;;;;;;;19.25;19.25;;;;;5.12;58.99;99017.00;2070403;27;46450;-63
2023/01/18 05:17:54;;;;;;;;;15.75;14.75;;;;;5.12;58.40;99019.63;2062156;28;46407;-64
2023/01/18 05:18:54;;;;;;;;;15.50;15.50;;;;;5.12;58.77;99021.41;2062068;28;45252;-63
2023/01/18 05:19:56;;;;;;;;;19.00;16.50;;;;;5.12;58.64;99022.25;2062174;28;45743;-64
2023/01/18 05:20:56;;;;;;;;;18.40;16.60;;;;;5.12;58.57;99022.25;2062558;28;47022;-63
2023/01/18 05:21:56;;;;;;;;;20.00;20.00;;;;;5.11;58.55;99025.81;2064049;27;46838;-65
2023/01/18 05:22:56;;;;;;;;;19.25;15.25;;;;;5.11;58.15;99022.31;2084642;27;46330;-64
2023/01/18 05:23:57;;;;;;;;;21.50;18.00;;;;;5.10;58.42;99026.72;2082698;27;46873;-63
2023/01/18 05:24:58;;;;;;;;;20.75;19.50;;;;;5.09;58.10;99037.28;2071569;27;46748;-62
2023/01/18 05:25:58;;;;;;;;;23.25;21.75;;;;;5.08;58.72;99033.75;2084077;27;47983;-63
2023/01/18 05:26:58;;;;;;;;;18.25;18.00;;;;;5.08;58.47;99027.63;2074062;27;45937;-65
2023/01/18 05:27:59;;;;;;;;;21.50;19.75;;;;;5.09;58.47;99032.88;2079327;27;46672;-64